Time;durP1;ratioP1;P1;durP2;ratioP2;P2;SDS_P1;SDS_P2;PMS_P1;PMS_P2;Temp;Humidity;BMP_temperature;BMP_pressure;BME280_temperature;BME280_humidity;BME280_pressure;Samples;Min_cycle;Max_cycle;Signal;HPM_P1;HPM_P2
2022/07/16 00:02:47;;;;;;;2.67;1.80;;;20.70;44.80;;;;;;5114485;28;20069;-72
2022/07/16 00:05:13;;;;;;;3.17;2.08;;;20.70;44.70;;;;;;5114396;28;20035;-72
2022/07/16 00:07:39;;;;;;;5.72;2.40;;;20.70;44.90;;;;;;5114303;28;20028;-72
2022/07/16 00:10:06;;;;;;;3.58;1.88;;;20.70;44.90;;;;;;5114222;28;20015;-74
2022/07/16 00:12:31;;;;;;;3.28;2.10;;;20.60;45.30;;;;;;5110811;28;20400;-76
2022/07/16 00:14:59;;;;;;;2.88;1.98;;;20.60;45.40;;;;;;5113809;28;20024;-75
2022/07/16 00:17:25;;;;;;;2.58;2.00;;;20.50;45.30;;;;;;5111559;28;20016;-75
2022/07/16 00:19:50;;;;;;;3.55;2.10;;;20.50;45.40;;;;;;5113925;28;20089;-74
2022/07/16 00:22:16;;;;;;;2.90;2.00;;;20.50;45.50;;;;;;5114079;28;20027;-75
2022/07/16 00:24:42;;;;;;;3.17;1.98;;;20.50;45.40;;;;;;5113789;28;20120;-74
2022/07/16 00:27:08;;;;;;;3.85;2.13;;;20.50;45.90;;;;;;5113807;28;20020;-74
2022/07/16 00:29:34;;;;;;;2.60;1.88;;;20.50;45.50;;;;;;5112456;28;20065;-73
2022/07/16 00:31:59;;;;;;;2.83;1.90;;;20.50;45.50;;;;;;5113794;28;20376;-73
2022/07/16 00:34:26;;;;;;;3.42;2.08;;;20.50;45.70;;;;;;5112372;28;20017;-75
2022/07/16 00:36:52;;;;;;;3.90;1.98;;;20.40;45.80;;;;;;5114018;28;20461;-71
2022/07/16 00:39:18;;;;;;;1.50;1.40;;;20.40;45.50;;;;;;5113780;28;20107;-75
2022/07/16 00:41:46;;;;;;;3.08;1.63;;;20.40;45.50;;;;;;5113833;28;20447;-75
2022/07/16 00:44:15;;;;;;;3.92;1.60;;;20.40;45.70;;;;;;5113750;28;20033;-75
2022/07/16 00:46:41;;;;;;;3.80;1.83;;;20.40;45.90;;;;;;5113590;28;20030;-75
2022/07/16 00:49:08;;;;;;;2.60;1.90;;;20.30;45.80;;;;;;5113679;28;20465;-74
2022/07/16 00:51:35;;;;;;;2.95;1.88;;;20.30;46.20;;;;;;5113177;28;20387;-78
2022/07/16 00:54:03;;;;;;;3.88;2.08;;;20.30;46.50;;;;;;5113463;28;20028;-72
2022/07/16 00:56:29;;;;;;;2.17;1.55;;;20.30;46.70;;;;;;5113548;28;20529;-77
2022/07/16 00:58:58;;;;;;;3.72;2.10;;;20.30;46.40;;;;;;5113491;28;20020;-74
2022/07/16 01:01:24;;;;;;;2.25;1.92;;;20.30;46.60;;;;;;5113590;28;20441;-77
2022/07/16 01:03:50;;;;;;;3.42;1.70;;;20.20;46.60;;;;;;5110517;27;20088;-73
2022/07/16 01:06:16;;;;;;;2.85;2.00;;;20.20;46.60;;;;;;5112954;28;20026;-73
2022/07/16 01:08:45;;;;;;;2.53;1.75;;;20.20;47.20;;;;;;5113197;28;20028;-77
2022/07/16 01:11:13;;;;;;;3.00;1.70;;;20.20;47.20;;;;;;5112882;28;20461;-74
2022/07/16 01:13:41;;;;;;;3.13;1.65;;;20.20;47.20;;;;;;5112806;28;20024;-75
2022/07/16 01:16:08;;;;;;;2.83;1.70;;;20.10;47.10;;;;;;5112860;28;20047;-77
2022/07/16 01:18:35;;;;;;;2.15;1.80;;;20.10;47.20;;;;;;5112865;28;20015;-73
2022/07/16 01:21:02;;;;;;;6.68;2.25;;;20.10;47.00;;;;;;5112456;28;20040;-75
2022/07/16 01:23:27;;;;;;;3.63;2.13;;;20.10;47.20;;;;;;5112719;28;20160;-76
2022/07/16 01:25:53;;;;;;;3.25;1.58;;;20.00;47.20;;;;;;5112346;28;20428;-76
2022/07/16 01:28:20;;;;;;;2.75;1.52;;;20.00;47.20;;;;;;5111224;28;20020;-75
2022/07/16 01:30:47;;;;;;;2.25;1.50;;;20.00;47.40;;;;;;5111335;28;20023;-74
2022/07/16 01:33:24;;;;;;;2.63;1.80;;;20.00;47.50;;;;;;5112243;28;20133;-77
2022/07/16 01:35:55;;;;;;;5.03;2.00;;;19.90;47.70;;;;;;5110619;28;20137;-76
2022/07/16 01:38:21;;;;;;;3.05;2.03;;;19.90;47.70;;;;;;5111202;28;20156;-75
2022/07/16 01:40:47;;;;;;;3.05;1.90;;;19.90;48.00;;;;;;5112460;28;20407;-74
2022/07/16 01:43:16;;;;;;;2.20;2.00;;;19.80;48.10;;;;;;5112433;28;20038;-75
2022/07/16 01:45:42;;;;;;;2.92;1.92;;;19.80;48.50;;;;;;5112591;28;20024;-76
2022/07/16 01:48:09;;;;;;;1.98;1.42;;;19.70;48.60;;;;;;5112809;28;20060;-75
2022/07/16 01:50:36;;;;;;;3.75;1.70;;;19.70;48.60;;;;;;5095045;28;20024;-74
2022/07/16 01:53:02;;;;;;;2.63;1.60;;;19.60;48.60;;;;;;5092256;28;20028;-71
2022/07/16 01:55:28;;;;;;;2.90;1.77;;;19.60;48.80;;;;;;5092363;28;20024;-74
2022/07/16 01:57:54;;;;;;;2.63;1.95;;;19.60;48.90;;;;;;5092618;28;20103;-75
2022/07/16 02:00:20;;;;;;;2.60;1.50;;;19.50;48.80;;;;;;5092203;28;20032;-72
2022/07/16 02:02:46;;;;;;;3.30;2.13;;;19.50;49.10;;;;;;5092315;28;20028;-75
2022/07/16 02:05:12;;;;;;;2.80;1.98;;;19.50;49.20;;;;;;5092663;28;20020;-75
2022/07/16 02:07:44;;;;;;;3.10;2.20;;;19.40;49.40;;;;;;5093186;28;20020;-80
2022/07/16 02:10:10;;;;;;;2.30;1.70;;;19.40;49.80;;;;;;5093217;28;20432;-74
2022/07/16 02:12:36;;;;;;;3.80;2.20;;;19.40;49.90;;;;;;5093113;28;20020;-75
2022/07/16 02:15:03;;;;;;;3.03;1.90;;;19.30;49.80;;;;;;5093140;28;20500;-73
2022/07/16 02:17:29;;;;;;;3.38;1.92;;;19.30;49.70;;;;;;5093089;28;20031;-73
2022/07/16 02:19:54;;;;;;;6.88;2.67;;;19.30;49.90;;;;;;5092853;28;20044;-73
2022/07/16 02:22:20;;;;;;;4.53;1.83;;;19.30;50.20;;;;;;5091703;28;20020;-75
2022/07/16 02:24:46;;;;;;;3.00;1.88;;;19.30;50.20;;;;;;5092963;28;20020;-76
2022/07/16 02:27:12;;;;;;;2.42;1.95;;;19.30;50.60;;;;;;5092983;28;20504;-77
2022/07/16 02:29:38;;;;;;;3.40;1.95;;;19.20;50.80;;;;;;5092966;28;20048;-72
2022/07/16 02:32:04;;;;;;;3.65;1.92;;;19.20;50.70;;;;;;5092754;28;20027;-73
2022/07/16 02:34:29;;;;;;;4.15;2.30;;;19.20;50.70;;;;;;5103598;28;20028;-75
2022/07/16 02:36:55;;;;;;;3.38;2.05;;;19.20;50.90;;;;;;5115113;28;20020;-75
2022/07/16 02:39:21;;;;;;;4.78;2.33;;;19.20;51.40;;;;;;5116110;28;20182;-75
2022/07/16 02:41:47;;;;;;;3.22;2.10;;;19.20;51.30;;;;;;5117341;28;20023;-75
2022/07/16 02:44:13;;;;;;;3.22;1.75;;;19.20;51.10;;;;;;5117231;28;20023;-73
2022/07/16 02:46:39;;;;;;;4.57;2.10;;;19.20;51.00;;;;;;5117214;28;20024;-73
2022/07/16 02:49:04;;;;;;;2.10;1.80;;;19.20;51.00;;;;;;5100319;27;20099;-75
2022/07/16 02:51:30;;;;;;;4.35;2.28;;;19.20;51.20;;;;;;5096776;28;20024;-73
2022/07/16 02:53:56;;;;;;;3.00;1.88;;;19.10;51.20;;;;;;5096890;28;20016;-74
2022/07/16 02:56:22;;;;;;;2.92;1.67;;;19.20;51.30;;;;;;5096624;28;20022;-76
2022/07/16 02:58:48;;;;;;;2.63;2.10;;;19.10;51.60;;;;;;5096544;28;20102;-73
2022/07/16 03:01:14;;;;;;;3.58;2.40;;;19.10;51.30;;;;;;5096571;28;20044;-73
2022/07/16 03:03:39;;;;;;;3.55;1.90;;;19.10;51.30;;;;;;5096339;28;20107;-75
2022/07/16 03:06:06;;;;;;;4.18;2.10;;;19.10;51.20;;;;;;5096388;28;20028;-73
2022/07/16 03:08:31;;;;;;;4.97;2.30;;;19.10;51.40;;;;;;5096269;28;20103;-72
2022/07/16 03:10:57;;;;;;;2.85;2.22;;;19.00;51.40;;;;;;5096416;28;20059;-74
2022/07/16 03:13:23;;;;;;;3.03;2.28;;;19.10;51.50;;;;;;5096377;28;20027;-75
2022/07/16 03:15:49;;;;;;;2.55;1.80;;;19.00;51.40;;;;;;5096474;28;20038;-75
2022/07/16 03:18:15;;;;;;;3.15;2.00;;;19.00;51.40;;;;;;5096296;28;20374;-73
2022/07/16 03:20:41;;;;;;;3.25;2.15;;;19.00;51.40;;;;;;5096007;28;20063;-74
2022/07/16 03:23:07;;;;;;;3.03;1.90;;;18.90;51.70;;;;;;5096119;28;20028;-73
2022/07/16 03:25:32;;;;;;;4.68;2.53;;;18.90;51.50;;;;;;5096018;28;20024;-74
2022/07/16 03:27:58;;;;;;;4.57;2.17;;;18.90;51.70;;;;;;5096093;28;20024;-77
2022/07/16 03:30:24;;;;;;;3.67;2.20;;;18.90;52.50;;;;;;5095940;28;20024;-77
2022/07/16 03:32:50;;;;;;;3.40;2.17;;;18.90;52.80;;;;;;5095831;28;20016;-74
2022/07/16 03:35:16;;;;;;;4.43;2.42;;;18.90;52.80;;;;;;5096272;27;20032;-74
2022/07/16 03:40:27;;;;;;;2.65;2.00;;;18.90;52.90;;;;;;5096129;28;20081;-72
2022/07/16 03:42:53;;;;;;;4.60;2.65;;;18.90;52.70;;;;;;5095722;28;20016;-75
2022/07/16 03:45:19;;;;;;;3.95;2.22;;;18.90;53.00;;;;;;5095607;28;20104;-77
2022/07/16 03:47:45;;;;;;;2.50;1.92;;;18.90;53.50;;;;;;5095228;28;20031;-71
2022/07/16 03:50:11;;;;;;;4.90;1.80;;;18.80;53.10;;;;;;5095608;28;20025;-78
2022/07/16 03:52:37;;;;;;;8.45;2.75;;;18.80;53.10;;;;;;5095390;28;20020;-73
2022/07/16 03:55:03;;;;;;;2.80;1.85;;;18.80;53.70;;;;;;5095556;28;20051;-75
2022/07/16 03:57:29;;;;;;;4.80;2.17;;;18.80;53.80;;;;;;5094149;28;20047;-74
2022/07/16 03:59:54;;;;;;;2.92;2.17;;;18.80;53.90;;;;;;5095451;28;20437;-74
2022/07/16 04:02:20;;;;;;;3.53;2.22;;;18.80;54.30;;;;;;5095795;28;20418;-75
2022/07/16 04:04:46;;;;;;;3.33;2.10;;;18.80;54.70;;;;;;5095599;28;20567;-76
2022/07/16 04:07:12;;;;;;;4.75;2.38;;;18.80;54.50;;;;;;5112292;28;20098;-73
2022/07/16 04:09:37;;;;;;;4.07;2.28;;;18.90;54.80;;;;;;5115798;28;20019;-71
2022/07/16 04:12:04;;;;;;;3.78;1.65;;;18.90;54.60;;;;;;5115812;28;20074;-75
2022/07/16 04:14:29;;;;;;;7.07;2.15;;;18.90;54.30;;;;;;5115623;28;20023;-77
2022/07/16 04:16:55;;;;;;;6.03;2.22;;;19.00;54.40;;;;;;5115628;28;20022;-71
2022/07/16 04:19:21;;;;;;;2.42;2.05;;;19.00;54.10;;;;;;5115468;28;20033;-75
2022/07/16 04:21:47;;;;;;;3.45;1.90;;;19.00;54.10;;;;;;5115492;27;20484;-74
2022/07/16 04:24:12;;;;;;;3.20;2.00;;;19.10;53.80;;;;;;5114091;28;20100;-73
2022/07/16 04:26:38;;;;;;;2.13;1.63;;;19.10;53.60;;;;;;5115421;28;20024;-75
2022/07/16 04:29:04;;;;;;;7.72;2.20;;;19.20;53.50;;;;;;5115337;28;20023;-75
2022/07/16 04:31:33;;;;;;;3.67;2.20;;;19.30;53.90;;;;;;5115336;28;20449;-74
2022/07/16 04:33:58;;;;;;;3.13;1.75;;;19.30;53.80;;;;;;5109191;28;20052;-75
2022/07/16 04:36:24;;;;;;;4.80;2.30;;;19.40;53.70;;;;;;5094813;28;20420;-72
2022/07/16 04:38:50;;;;;;;3.72;2.08;;;19.50;53.50;;;;;;5094813;28;20016;-73
2022/07/16 04:41:16;;;;;;;2.55;1.90;;;19.50;53.30;;;;;;5093497;28;20020;-75
2022/07/16 04:43:41;;;;;;;3.30;1.90;;;19.60;53.00;;;;;;5093426;28;20027;-74
2022/07/16 04:46:07;;;;;;;5.30;2.25;;;19.60;52.90;;;;;;5094451;28;20027;-72
2022/07/16 04:48:33;;;;;;;2.70;2.08;;;19.70;52.80;;;;;;5094562;28;20023;-75
2022/07/16 04:50:59;;;;;;;6.63;2.25;;;19.70;52.70;;;;;;5094607;28;20416;-75
2022/07/16 04:53:24;;;;;;;4.55;2.38;;;19.70;52.60;;;;;;5094552;28;20024;-73
2022/07/16 04:55:50;;;;;;;3.65;2.10;;;19.80;52.60;;;;;;5094442;28;20024;-73
2022/07/16 04:58:16;;;;;;;4.57;2.20;;;19.80;52.70;;;;;;5110950;28;20035;-72
2022/07/16 05:00:42;;;;;;;3.67;2.15;;;19.90;52.40;;;;;;5112840;28;20032;-74
2022/07/16 05:03:08;;;;;;;3.40;2.40;;;19.90;52.30;;;;;;5098797;28;20035;-73
2022/07/16 05:05:36;;;;;;;5.07;2.45;;;20.00;52.20;;;;;;5094235;28;20055;-73
2022/07/16 05:08:04;;;;;;;3.17;2.17;;;20.00;52.10;;;;;;5094205;28;20020;-74
2022/07/16 05:10:30;;;;;;;3.97;2.05;;;20.00;52.10;;;;;;5094209;28;20031;-71
2022/07/16 05:12:57;;;;;;;2.78;2.10;;;20.10;52.10;;;;;;5094191;28;20443;-74
2022/07/16 05:15:23;;;;;;;5.78;2.58;;;20.10;52.10;;;;;;5094119;28;20024;-75
2022/07/16 05:17:49;;;;;;;3.85;2.53;;;20.10;52.00;;;;;;5094092;28;20473;-71
2022/07/16 05:20:15;;;;;;;4.03;2.35;;;20.10;51.90;;;;;;5093711;28;20048;-74
2022/07/16 05:22:41;;;;;;;12.82;2.72;;;20.20;52.00;;;;;;5093935;28;20058;-72
2022/07/16 05:25:08;;;;;;;7.32;2.65;;;20.30;52.00;;;;;;5093893;28;20028;-76
2022/07/16 05:27:35;;;;;;;6.05;2.78;;;20.30;51.90;;;;;;5104573;28;20024;-77
2022/07/16 05:30:01;;;;;;;5.13;2.75;;;20.40;51.90;;;;;;5114406;28;20026;-76
2022/07/16 05:32:27;;;;;;;4.97;1.80;;;20.40;51.60;;;;;;5112175;27;20011;-74
2022/07/16 05:34:53;;;;;;;3.70;2.03;;;20.50;51.30;;;;;;5111164;28;20094;-74
2022/07/16 05:37:19;;;;;;;3.47;2.17;;;20.50;51.00;;;;;;5112717;28;20019;-75
2022/07/16 05:39:45;;;;;;;5.35;2.75;;;20.60;50.90;;;;;;5111329;28;20388;-76
2022/07/16 05:42:10;;;;;;;3.42;2.10;;;20.60;50.80;;;;;;5112598;28;20035;-74
2022/07/16 05:44:36;;;;;;;4.05;1.98;;;20.70;51.00;;;;;;5110760;28;20503;-75
2022/07/16 05:47:02;;;;;;;4.32;2.60;;;20.80;51.00;;;;;;5112449;28;20062;-74
2022/07/16 05:49:28;;;;;;;3.05;2.22;;;20.80;50.80;;;;;;5112450;28;20094;-77
2022/07/16 05:51:54;;;;;;;4.10;2.50;;;20.90;50.80;;;;;;5112335;28;20026;-75
2022/07/16 05:54:20;;;;;;;7.30;2.17;;;20.90;50.40;;;;;;5112401;28;20031;-72
2022/07/16 05:56:45;;;;;;;4.90;2.78;;;21.00;50.70;;;;;;5110085;28;20523;-73
2022/07/16 05:59:11;;;;;;;2.20;2.00;;;21.00;50.20;;;;;;5111318;28;20032;-76
2022/07/16 06:01:37;;;;;;;3.33;2.30;;;21.10;50.00;;;;;;5112262;28;20030;-76
2022/07/16 06:04:03;;;;;;;3.90;2.42;;;21.20;49.90;;;;;;5110738;28;20016;-74
2022/07/16 06:06:29;;;;;;;3.38;2.33;;;21.20;49.80;;;;;;5110836;28;20027;-73
2022/07/16 06:08:55;;;;;;;2.90;2.15;;;21.30;50.00;;;;;;5111976;28;20023;-71
2022/07/16 06:11:21;;;;;;;4.60;2.45;;;21.40;50.00;;;;;;5111839;28;20023;-74
2022/07/16 06:13:47;;;;;;;3.15;2.25;;;21.40;50.00;;;;;;5110656;28;20027;-75
2022/07/16 06:16:12;;;;;;;2.83;2.33;;;21.50;50.10;;;;;;5111888;28;20032;-74
2022/07/16 06:18:38;;;;;;;3.85;2.30;;;21.50;50.10;;;;;;5111986;28;20049;-76
2022/07/16 06:21:04;;;;;;;2.95;2.05;;;21.60;50.50;;;;;;5111741;28;20092;-74
2022/07/16 06:23:30;;;;;;;3.28;2.28;;;21.70;50.10;;;;;;5113060;28;20023;-75
2022/07/16 06:25:56;;;;;;;4.13;2.20;;;21.70;50.00;;;;;;5113096;28;20476;-74
2022/07/16 06:28:22;;;;;;;3.08;2.13;;;21.80;50.00;;;;;;5094939;28;20021;-75
2022/07/16 06:30:47;;;;;;;4.10;2.00;;;21.90;49.70;;;;;;5092798;28;20387;-75
2022/07/16 06:33:13;;;;;;;6.50;2.00;;;21.90;49.80;;;;;;5091379;28;20053;-74
2022/07/16 06:35:39;;;;;;;4.30;2.03;;;22.00;49.80;;;;;;5091499;28;20063;-76
2022/07/16 06:38:05;;;;;;;3.70;2.28;;;22.10;49.70;;;;;;5091443;28;20093;-75
2022/07/16 06:40:30;;;;;;;3.15;2.13;;;22.20;49.60;;;;;;5092771;28;20031;-75
2022/07/16 06:42:56;;;;;;;3.20;2.20;;;22.20;49.20;;;;;;5092599;28;20035;-75
2022/07/16 06:45:22;;;;;;;3.13;2.08;;;22.30;48.70;;;;;;5092593;28;20029;-74
2022/07/16 06:47:48;;;;;;;3.58;2.10;;;22.30;49.00;;;;;;5092538;28;20029;-72
2022/07/16 06:50:14;;;;;;;4.88;2.50;;;22.40;48.30;;;;;;5091338;28;20020;-74
2022/07/16 06:52:40;;;;;;;3.78;2.38;;;22.50;48.00;;;;;;5092667;28;20024;-74
2022/07/16 06:55:07;;;;;;;4.97;2.47;;;22.50;47.80;;;;;;5092555;28;20157;-72
2022/07/16 06:57:33;;;;;;;3.17;2.20;;;22.60;47.80;;;;;;5092816;28;20485;-75
2022/07/16 06:59:59;;;;;;;8.00;2.97;;;22.60;48.00;;;;;;5092550;28;20027;-72
2022/07/16 07:02:25;;;;;;;5.55;2.83;;;22.70;47.80;;;;;;5092534;28;20380;-75
2022/07/16 07:04:51;;;;;;;4.43;2.45;;;22.70;47.50;;;;;;5092393;28;20024;-75
2022/07/16 07:07:16;;;;;;;4.82;2.42;;;22.80;47.60;;;;;;5092556;28;20500;-74
2022/07/16 07:09:42;;;;;;;5.22;2.47;;;22.90;46.30;;;;;;5092449;28;20030;-76
2022/07/16 07:12:08;;;;;;;2.80;1.88;;;22.90;45.50;;;;;;5091207;28;20020;-75
2022/07/16 07:14:34;;;;;;;4.63;2.42;;;23.00;45.70;;;;;;5092404;28;20075;-77
2022/07/16 07:17:00;;;;;;;5.35;2.28;;;23.00;45.80;;;;;;5092404;28;20031;-74
2022/07/16 07:19:26;;;;;;;4.45;2.30;;;23.10;45.40;;;;;;5091139;28;20423;-75
2022/07/16 07:21:52;;;;;;;4.95;2.25;;;23.10;45.30;;;;;;5092460;28;20024;-72
2022/07/16 07:24:18;;;;;;;3.42;2.50;;;23.20;44.90;;;;;;5096010;28;20031;-75
2022/07/16 07:26:43;;;;;;;6.50;2.40;;;23.20;44.80;;;;;;5095918;28;20489;-74
2022/07/16 07:29:09;;;;;;;3.35;2.13;;;23.30;44.20;;;;;;5096151;28;20076;-76
2022/07/16 07:31:35;;;;;;;3.75;1.90;;;23.30;44.40;;;;;;5094489;28;20032;-76
2022/07/16 07:34:01;;;;;;;7.15;2.40;;;23.40;44.40;;;;;;5095949;28;20069;-73
2022/07/16 07:36:26;;;;;;;5.57;2.53;;;23.40;44.00;;;;;;5095837;28;20021;-74
2022/07/16 07:38:52;;;;;;;8.05;2.30;;;23.50;43.80;;;;;;5095804;28;20105;-78
2022/07/16 07:41:18;;;;;;;4.13;2.40;;;23.60;43.70;;;;;;5095680;28;20081;-75
2022/07/16 07:43:44;;;;;;;5.15;2.45;;;23.70;43.50;;;;;;5095600;28;20028;-73
2022/07/16 07:46:09;;;;;;;2.80;2.10;;;23.70;42.60;;;;;;5095556;28;20022;-73
2022/07/16 07:48:35;;;;;;;3.47;2.15;;;23.70;42.60;;;;;;5095449;28;20027;-74
2022/07/16 07:51:02;;;;;;;3.08;2.15;;;23.70;42.20;;;;;;5094282;28;20020;-73
2022/07/16 07:53:28;;;;;;;8.73;2.28;;;23.80;41.60;;;;;;5094123;28;20099;-74
2022/07/16 07:55:54;;;;;;;4.72;2.25;;;23.80;41.40;;;;;;5095430;28;20103;-75
2022/07/16 07:58:20;;;;;;;5.90;2.30;;;23.90;41.00;;;;;;5095410;28;20444;-72
2022/07/16 08:00:45;;;;;;;5.65;2.53;;;23.90;41.50;;;;;;5095337;28;20111;-72
2022/07/16 08:03:11;;;;;;;3.53;1.95;;;23.90;41.40;;;;;;5095212;28;20043;-76
2022/07/16 08:05:37;;;;;;;6.35;2.42;;;24.00;41.70;;;;;;5095216;28;20028;-73
2022/07/16 08:08:03;;;;;;;4.30;2.30;;;24.00;41.60;;;;;;5095234;28;20027;-74
2022/07/16 08:10:29;;;;;;;5.00;1.95;;;24.10;41.80;;;;;;5095178;28;20056;-73
2022/07/16 08:12:55;;;;;;;7.93;2.30;;;24.20;41.90;;;;;;5095147;28;20048;-76
2022/07/16 08:15:21;;;;;;;5.00;2.17;;;24.20;41.90;;;;;;5095095;28;20103;-72
2022/07/16 08:17:47;;;;;;;4.38;2.50;;;24.30;41.20;;;;;;5095108;28;20031;-72
2022/07/16 08:20:13;;;;;;;4.15;2.30;;;24.30;41.60;;;;;;5094827;28;20178;-73
2022/07/16 08:22:39;;;;;;;11.43;2.50;;;24.40;41.00;;;;;;5094976;28;20069;-74
2022/07/16 08:27:51;;;;;;;3.20;2.25;;;24.40;41.20;;;;;;5095056;28;20061;-75
2022/07/16 08:30:17;;;;;;;4.88;2.35;;;24.50;40.80;;;;;;5111768;28;20031;-73
2022/07/16 08:32:43;;;;;;;4.47;2.30;;;24.50;40.80;;;;;;5115013;28;20016;-74
2022/07/16 08:35:09;;;;;;;9.85;2.30;;;24.60;40.80;;;;;;5113943;28;20492;-76
2022/07/16 08:37:45;;;;;;;11.35;7.63;;;24.60;40.80;;;;;;5114965;28;20034;-76
2022/07/16 08:40:20;;;;;;;6.40;3.30;;;24.70;41.20;;;;;;5102186;28;20032;-75
2022/07/16 08:42:47;;;;;;;6.95;2.60;;;24.70;41.30;;;;;;5093254;28;20032;-76
2022/07/16 08:45:15;;;;;;;4.07;2.50;;;24.80;41.50;;;;;;5094322;28;20024;-76
2022/07/16 08:47:41;;;;;;;4.40;2.42;;;24.80;41.50;;;;;;5094273;28;20020;-73
2022/07/16 08:50:13;;;;;;;3.38;2.08;;;24.90;41.30;;;;;;5094344;28;20020;-77
2022/07/16 08:52:50;;;;;;;5.18;2.10;;;25.00;41.30;;;;;;5094286;28;20024;-75
2022/07/16 08:55:16;;;;;;;6.82;2.50;;;25.00;41.00;;;;;;5095369;28;20493;-77
2022/07/16 08:57:43;;;;;;;10.25;3.00;;;25.10;40.70;;;;;;5112493;28;20069;-74
2022/07/16 09:00:13;;;;;;;4.72;2.22;;;25.20;40.50;;;;;;5113241;28;20023;-74
2022/07/16 09:02:40;;;;;;;7.22;2.40;;;25.20;40.80;;;;;;5113038;28;20027;-73
2022/07/16 09:05:07;;;;;;;11.02;4.03;;;25.20;40.60;;;;;;5114437;28;20051;-74
2022/07/16 09:07:33;;;;;;;4.28;2.58;;;25.30;40.40;;;;;;5114290;28;20016;-74
2022/07/16 09:09:59;;;;;;;4.55;2.72;;;25.40;40.20;;;;;;5114351;28;20031;-75
2022/07/16 09:12:35;;;;;;;5.30;2.72;;;25.40;40.20;;;;;;5112770;28;20028;-74
2022/07/16 09:15:24;;;;;;;4.38;2.72;;;25.50;40.20;;;;;;5113192;28;20028;-74
2022/07/16 09:18:10;;;;;;;4.63;2.63;;;25.50;40.00;;;;;;5103261;28;20035;-72
2022/07/16 09:20:38;;;;;;;4.28;2.58;;;25.60;40.10;;;;;;5110640;28;20527;-72
2022/07/16 09:23:15;;;;;;;4.13;2.15;;;25.70;40.20;;;;;;5113704;28;20028;-74
2022/07/16 09:25:54;;;;;;;5.68;2.92;;;25.80;40.10;;;;;;5113565;28;20465;-73
2022/07/16 09:28:20;;;;;;;8.43;2.80;;;25.90;38.90;;;;;;5112621;28;20023;-71
2022/07/16 09:30:46;;;;;;;4.38;2.28;;;26.00;39.10;;;;;;5113991;28;20030;-71
2022/07/16 09:33:16;;;;;;;6.60;2.80;;;26.10;38.90;;;;;;5113950;28;20383;-72
2022/07/16 09:35:42;;;;;;;4.55;2.47;;;26.10;38.70;;;;;;5113925;28;20107;-71
2022/07/16 09:38:09;;;;;;;4.00;2.10;;;26.20;38.50;;;;;;5106402;28;20104;-76
2022/07/16 09:40:46;;;;;;;5.07;2.20;;;26.30;37.50;;;;;;5093197;28;20376;-74
2022/07/16 09:43:12;;;;;;;3.38;2.20;;;26.30;37.50;;;;;;5093516;28;20507;-74
2022/07/16 09:45:39;;;;;;;5.50;2.45;;;26.40;36.90;;;;;;5092959;28;20484;-73
2022/07/16 09:48:24;;;;;;;5.15;2.58;;;26.60;36.70;;;;;;5101077;28;20123;-71
2022/07/16 09:50:51;;;;;;;2.15;1.92;;;26.70;37.40;;;;;;5110864;28;20102;-74
2022/07/16 09:53:20;;;;;;;4.20;2.70;;;26.80;36.30;;;;;;5112313;28;20022;-73
2022/07/16 09:56:01;;;;;;;5.43;2.13;;;26.90;36.30;;;;;;5112352;28;20543;-75
2022/07/16 09:58:27;;;;;;;3.28;2.42;;;27.00;35.80;;;;;;5109659;28;20507;-72
2022/07/16 10:00:53;;;;;;;3.45;2.28;;;27.10;34.90;;;;;;5108893;28;20023;-74
2022/07/16 10:03:20;;;;;;;6.32;2.13;;;27.10;34.50;;;;;;5112928;28;20487;-72
2022/07/16 10:05:46;;;;;;;3.72;2.63;;;27.10;33.80;;;;;;5113033;28;20110;-73
2022/07/16 10:08:13;;;;;;;3.50;2.45;;;27.10;33.60;;;;;;5113118;28;20034;-75
2022/07/16 10:10:39;;;;;;;3.30;2.30;;;27.10;33.30;;;;;;5110366;28;20349;-71
2022/07/16 10:13:05;;;;;;;7.93;2.05;;;27.10;33.00;;;;;;5113107;28;20018;-71
2022/07/16 10:15:31;;;;;;;4.72;2.40;;;27.10;33.30;;;;;;5112759;28;20029;-71
2022/07/16 10:17:58;;;;;;;7.53;2.35;;;27.10;32.80;;;;;;5112711;28;20020;-73
2022/07/16 10:20:24;;;;;;;3.17;2.30;;;27.10;32.30;;;;;;5110816;28;20527;-72
2022/07/16 10:22:51;;;;;;;3.90;2.38;;;27.10;32.30;;;;;;5112424;28;20016;-75
2022/07/16 10:25:20;;;;;;;3.17;2.42;;;27.10;32.50;;;;;;5108723;28;20019;-72
2022/07/16 10:27:46;;;;;;;3.83;2.20;;;27.00;33.10;;;;;;5109970;28;20141;-72
2022/07/16 10:30:15;;;;;;;5.78;2.58;;;27.00;32.50;;;;;;5111173;28;20524;-71
2022/07/16 10:33:10;;;;;;;3.47;2.00;;;27.00;32.10;;;;;;5111822;28;20063;-72
2022/07/16 10:35:43;;;;;;;;;;;27.00;33.00;;;;;;5106265;28;20468;-72
2022/07/16 10:38:23;;;;;;;5.73;3.23;;;27.10;33.60;;;;;;5109435;28;19903;-72
2022/07/16 10:41:15;;;;;;;2.45;1.98;;;27.10;32.10;;;;;;5108212;28;20024;-71
2022/07/16 10:43:43;;;;;;;6.80;2.75;;;27.10;33.20;;;;;;5104268;28;20038;-74
2022/07/16 10:46:11;;;;;;;4.10;2.40;;;27.10;31.30;;;;;;5109252;28;20016;-71
2022/07/16 10:48:36;;;;;;;3.92;2.00;;;27.00;30.80;;;;;;5111868;28;20480;-74
2022/07/16 10:51:16;;;;;;;2.97;2.13;;;27.10;30.90;;;;;;5110274;28;20115;-71
2022/07/16 10:53:57;;;;;;;2.90;1.92;;;27.10;31.10;;;;;;5111761;28;20043;-73
2022/07/16 10:56:47;;;;;;;5.03;2.40;;;27.10;31.20;;;;;;5111045;28;20030;-73
2022/07/16 10:59:19;;;;;;;5.47;2.22;;;27.10;30.50;;;;;;5113974;28;20059;-72
2022/07/16 11:01:46;;;;;;;3.22;2.10;;;27.10;30.00;;;;;;5114098;28;20092;-71
2022/07/16 11:04:12;;;;;;;4.35;2.03;;;27.10;30.20;;;;;;5114258;28;20031;-74
2022/07/16 11:06:39;;;;;;;5.78;2.05;;;27.10;30.00;;;;;;5114267;28;20027;-73
2022/07/16 11:09:07;;;;;;;3.30;2.22;;;27.10;29.80;;;;;;5115539;28;20591;-72
2022/07/16 11:11:37;;;;;;;3.65;2.35;;;27.10;29.20;;;;;;5115185;28;20106;-73
2022/07/16 11:14:04;;;;;;;4.32;2.30;;;27.10;30.00;;;;;;5115283;28;20070;-75
2022/07/16 11:16:31;;;;;;;7.28;2.65;;;27.10;30.00;;;;;;5115462;28;20048;-73
2022/07/16 11:19:04;;;;;;;3.13;2.17;;;27.20;30.40;;;;;;5115289;28;20501;-71
2022/07/16 11:21:31;;;;;;;6.22;2.80;;;27.20;30.30;;;;;;5115118;28;20048;-71
2022/07/16 11:24:01;;;;;;;5.72;2.83;;;27.30;30.10;;;;;;5115178;28;20094;-76
2022/07/16 11:26:30;;;;;;;3.17;2.03;;;27.30;29.80;;;;;;5115144;28;20380;-76
2022/07/16 11:29:01;;;;;;;4.30;2.05;;;27.30;30.00;;;;;;5112638;28;20401;-75
2022/07/16 11:31:32;;;;;;;3.55;2.40;;;27.30;29.70;;;;;;5113265;28;20027;-71
2022/07/16 11:34:03;;;;;;;4.28;2.40;;;27.30;30.00;;;;;;5115019;28;20022;-70
2022/07/16 11:36:31;;;;;;;5.75;2.38;;;27.40;29.90;;;;;;5114087;28;20020;-75
2022/07/16 11:39:08;;;;;;;4.15;2.10;;;27.50;30.10;;;;;;5114863;28;20015;-72
2022/07/16 11:41:37;;;;;;;7.65;2.20;;;27.50;30.10;;;;;;5114801;28;20019;-73
2022/07/16 11:44:14;;;;;;;3.67;2.05;;;27.50;29.80;;;;;;5112215;28;20026;-75
2022/07/16 11:47:01;;;;;;;5.00;2.25;;;27.50;29.90;;;;;;5114900;28;20023;-75
2022/07/16 11:49:32;;;;;;;4.38;2.42;;;27.60;29.70;;;;;;5113527;28;20060;-75
2022/07/16 11:52:03;;;;;;;3.20;2.15;;;27.60;30.00;;;;;;5115714;28;20024;-73
2022/07/16 11:54:34;;;;;;;2.38;1.83;;;27.60;29.90;;;;;;5115827;28;20023;-73
2022/07/16 11:56:59;;;;;;;5.57;2.35;;;27.60;29.60;;;;;;5114496;27;20012;-74
2022/07/16 11:59:27;;;;;;;2.63;2.00;;;27.70;30.00;;;;;;5109248;28;20408;-73
2022/07/16 12:02:13;;;;;;;2.58;2.10;;;27.70;29.60;;;;;;5115701;27;20043;-75
2022/07/16 12:04:47;;;;;;;5.43;2.38;;;27.80;29.30;;;;;;5115522;28;20492;-75
2022/07/16 12:07:15;;;;;;;8.70;2.30;;;27.80;29.20;;;;;;5114487;28;20032;-74
2022/07/16 12:09:44;;;;;;;7.20;2.38;;;27.80;29.00;;;;;;5114198;28;20116;-74
2022/07/16 12:12:24;;;;;;;4.03;2.30;;;27.80;28.90;;;;;;5115663;28;20036;-75
2022/07/16 12:14:53;;;;;;;3.38;2.10;;;27.90;28.70;;;;;;5115644;28;20381;-71
2022/07/16 12:17:31;;;;;;;4.00;2.10;;;27.90;28.70;;;;;;5115484;28;20376;-71
2022/07/16 12:20:23;;;;;;;2.15;1.70;;;27.90;29.10;;;;;;5114083;28;20050;-76
2022/07/16 12:22:59;;;;;;;4.45;1.92;;;28.10;29.30;;;;;;5111319;28;20024;-70
2022/07/16 12:25:31;;;;;;;11.93;2.05;;;28.20;29.10;;;;;;5113948;28;20051;-72
2022/07/16 12:28:22;;;;;;;13.18;3.00;;;28.30;28.50;;;;;;5113497;28;20030;-72
2022/07/16 12:30:56;;;;;;;5.72;2.50;;;28.30;28.00;;;;;;5115204;27;20023;-72
2022/07/16 12:33:26;;;;;;;7.03;2.30;;;28.30;28.40;;;;;;5111230;28;20031;-71
2022/07/16 12:36:06;;;;;;;3.40;1.83;;;28.40;27.80;;;;;;5094811;28;20063;-75
2022/07/16 12:38:48;;;;;;;3.55;1.63;;;28.40;28.00;;;;;;5093620;28;20038;-69
2022/07/16 12:41:27;;;;;;;3.67;2.13;;;28.40;28.10;;;;;;5093507;28;20027;-70
2022/07/16 12:44:17;;;;;;;2.65;2.00;;;28.50;28.20;;;;;;5094590;28;20099;-71
2022/07/16 12:46:46;;;;;;;1.95;1.67;;;28.60;28.30;;;;;;5089298;28;20043;-72
2022/07/16 12:49:15;;;;;;;3.58;1.70;;;28.60;27.90;;;;;;5094586;28;20462;-74
2022/07/16 12:51:49;;;;;;;5.38;1.95;;;28.60;28.00;;;;;;5094502;28;20589;-75
2022/07/16 12:54:16;;;;;;;3.85;1.55;;;28.70;27.80;;;;;;5094538;28;20024;-70
2022/07/16 12:59:27;;;;;;;3.47;1.80;;;28.80;27.00;;;;;;5094459;28;20054;-72
2022/07/16 13:01:54;;;;;;;4.13;2.00;;;28.90;27.50;;;;;;5094324;28;20024;-73